Terminal Aerodrome Forecast
Issued by NWS

Home | Current Version | Previous Version | Text Only | Print | Product List | Glossary On
Versions: 1 2 3 4 5 6 7 8 9 10 11 12 13 14 15 16 17 18 19 20 21 22 23
000
FTUS45 KREV 231100
TAFTVL
TAF
KTVL 231122Z 2312/2412 VRB03KT P6SM FEW120
     FM231600 19008KT P6SM SCT120
     FM232000 20012G22KT P6SM SCT120
     FM240200 19007KT P6SM SKC
     FM240700 VRB03KT P6SM SKC=

USA.gov is the U.S. government's official web portal to all federal, state and local government web resources and services.